createdAt,value
2023-11-20T00:01:10.201Z,7.10
2023-11-20T00:03:36.870Z,6.97
2023-11-20T00:06:03.659Z,6.91
2023-11-20T00:08:30.122Z,6.88
2023-11-20T00:10:56.554Z,6.95
2023-11-20T00:13:23.002Z,6.89
2023-11-20T00:15:49.965Z,6.93
2023-11-20T00:18:16.530Z,7.00
2023-11-20T00:20:42.973Z,7.01
2023-11-20T00:23:09.452Z,6.91
2023-11-20T00:25:35.948Z,6.95
2023-11-20T00:28:02.401Z,7.01
2023-11-20T00:30:29.010Z,7.05
2023-11-20T00:32:55.609Z,7.07
2023-11-20T00:35:22.214Z,7.14
2023-11-20T00:37:48.659Z,7.22
2023-11-20T00:40:15.277Z,7.30
2023-11-20T00:42:42.167Z,7.36
2023-11-20T00:45:08.870Z,7.37
2023-11-20T00:47:35.332Z,7.41
2023-11-20T00:50:01.787Z,7.46
2023-11-20T00:52:31.081Z,7.39
2023-11-20T00:54:58.478Z,7.43
2023-11-20T00:57:24.974Z,7.39
2023-11-20T00:59:51.454Z,7.29
2023-11-20T01:02:17.950Z,7.26
2023-11-20T01:04:44.399Z,7.38
2023-11-20T01:07:10.935Z,7.41
2023-11-20T01:09:37.424Z,7.30
2023-11-20T01:12:04.255Z,7.36
2023-11-20T01:14:30.781Z,7.32
2023-11-20T01:16:57.557Z,7.34
2023-11-20T01:19:24.052Z,7.42
2023-11-20T01:21:50.644Z,7.36
2023-11-20T01:24:17.111Z,7.37
2023-11-20T01:26:43.570Z,7.46
2023-11-20T01:29:10.020Z,7.47
2023-11-20T01:31:36.541Z,7.48
2023-11-20T01:34:03.102Z,7.48
2023-11-20T01:36:29.673Z,7.50
2023-11-20T01:38:56.159Z,7.51
2023-11-20T01:41:22.689Z,7.53
2023-11-20T01:43:49.151Z,7.57
2023-11-20T01:46:16.586Z,7.55
2023-11-20T01:48:46.164Z,7.56
2023-11-20T01:51:13.466Z,7.57
2023-11-20T01:53:42.536Z,7.57
2023-11-20T01:56:11.933Z,7.60
2023-11-20T01:58:38.557Z,7.60
2023-11-20T02:01:05.746Z,7.57
2023-11-20T02:03:35.765Z,7.48
2023-11-20T02:06:02.331Z,7.55
2023-11-20T02:08:31.617Z,7.59
2023-11-20T02:11:03.137Z,7.54
2023-11-20T02:13:30.991Z,7.57
2023-11-20T02:15:57.704Z,7.61
2023-11-20T02:18:35.320Z,7.63
2023-11-20T02:21:03.064Z,7.61
2023-11-20T02:23:30.116Z,7.52
2023-11-20T02:26:02.735Z,7.55
2023-11-20T02:28:39.059Z,7.57
2023-11-20T02:31:06.001Z,7.47
2023-11-20T02:33:41.328Z,7.45
2023-11-20T02:36:08.142Z,7.44
2023-11-20T02:38:35.089Z,7.47
2023-11-20T02:41:01.745Z,7.53
2023-11-20T02:43:28.417Z,7.57
2023-11-20T02:45:56.730Z,7.52
2023-11-20T02:48:24.263Z,7.48
2023-11-20T02:50:50.772Z,7.55
2023-11-20T02:53:17.289Z,7.58
2023-11-20T02:55:43.764Z,7.50
2023-11-20T02:58:10.321Z,7.49
2023-11-20T03:00:39.201Z,7.45
2023-11-20T03:03:07.468Z,7.46
2023-11-20T03:05:35.752Z,7.47
2023-11-20T03:08:02.608Z,7.40
2023-11-20T03:10:29.153Z,7.42
2023-11-20T03:12:56.111Z,7.42
2023-11-20T03:15:22.729Z,7.42
2023-11-20T03:17:50.406Z,7.40
2023-11-20T03:20:17.345Z,7.48
2023-11-20T03:22:43.864Z,7.53
2023-11-20T03:25:10.627Z,7.50
2023-11-20T03:27:37.151Z,7.56
2023-11-20T03:30:03.982Z,7.48
2023-11-20T03:32:30.485Z,7.47
2023-11-20T03:34:56.938Z,7.49
2023-11-20T03:37:23.384Z,7.42
2023-11-20T03:39:49.866Z,7.42
2023-11-20T03:42:16.422Z,7.42
2023-11-20T03:44:42.857Z,7.48
2023-11-20T03:47:10.378Z,7.47
2023-11-20T03:49:36.825Z,7.42
2023-11-20T03:52:03.955Z,7.32
2023-11-20T03:54:30.431Z,7.37
2023-11-20T03:56:56.889Z,7.39
2023-11-20T03:59:23.346Z,7.32
2023-11-20T04:01:51.274Z,7.37
2023-11-20T04:04:17.897Z,7.30
2023-11-20T04:06:44.862Z,7.28
2023-11-20T04:09:11.460Z,7.25
2023-11-20T04:11:37.957Z,7.27
2023-11-20T04:14:04.886Z,7.23
2023-11-20T04:16:32.050Z,7.35
2023-11-20T04:18:58.922Z,7.44
2023-11-20T04:21:26.567Z,7.38
2023-11-20T04:23:53.403Z,7.44
2023-11-20T04:26:19.928Z,7.51
2023-11-20T04:28:46.594Z,7.54
2023-11-20T04:31:13.075Z,7.54
2023-11-20T04:33:43.822Z,7.50
2023-11-20T04:36:13.719Z,7.48
2023-11-20T04:38:40.890Z,7.43
2023-11-20T04:41:07.393Z,7.46
2023-11-20T04:43:33.887Z,7.54
2023-11-20T04:46:00.669Z,7.52
2023-11-20T04:48:27.167Z,7.50
2023-11-20T04:50:53.771Z,7.45
2023-11-20T04:53:22.090Z,7.41
2023-11-20T04:55:48.592Z,7.46
2023-11-20T04:58:15.100Z,7.49
2023-11-20T05:00:41.685Z,7.51
2023-11-20T05:03:08.503Z,7.50
2023-11-20T05:05:35.063Z,7.44
2023-11-20T05:08:01.772Z,7.36
2023-11-20T05:10:28.223Z,7.36
2023-11-20T05:12:55.694Z,7.40
2023-11-20T05:15:22.233Z,7.44
2023-11-20T05:17:48.761Z,7.43
2023-11-20T05:20:15.282Z,7.37
2023-11-20T05:22:41.834Z,7.37
2023-11-20T05:25:08.784Z,7.44
2023-11-20T05:27:35.296Z,7.45
2023-11-20T05:30:01.845Z,7.41
2023-11-20T05:32:28.325Z,7.43
2023-11-20T05:34:54.825Z,7.40
2023-11-20T05:37:21.442Z,7.44
2023-11-20T05:39:47.920Z,7.48
2023-11-20T05:42:14.406Z,7.46
2023-11-20T05:44:41.009Z,7.35
2023-11-20T05:47:07.560Z,7.43
2023-11-20T05:49:34.021Z,7.48
2023-11-20T05:52:00.594Z,7.38
2023-11-20T05:54:27.100Z,7.28
2023-11-20T05:56:53.578Z,7.27
2023-11-20T05:59:20.034Z,7.33
2023-11-20T06:01:46.548Z,7.36
2023-11-20T06:04:15.606Z,7.35
2023-11-20T06:06:42.196Z,7.41
2023-11-20T06:09:11.535Z,7.40
2023-11-20T06:11:38.174Z,7.39
2023-11-20T06:14:04.677Z,7.40
2023-11-20T06:16:31.314Z,7.44
2023-11-20T06:18:57.889Z,7.44
2023-11-20T06:21:24.431Z,7.39
2023-11-20T06:23:51.110Z,7.44
2023-11-20T06:26:17.661Z,7.56
2023-11-20T06:28:46.026Z,7.48
2023-11-20T06:31:12.747Z,7.44
2023-11-20T06:33:39.615Z,7.45
2023-11-20T06:36:08.022Z,7.43
2023-11-20T06:38:36.257Z,7.41
2023-11-20T06:41:03.971Z,7.40
2023-11-20T06:43:31.387Z,7.39
2023-11-20T06:45:58.411Z,7.39
2023-11-20T06:48:24.961Z,7.32
2023-11-20T06:50:51.393Z,7.39
2023-11-20T06:53:17.847Z,7.44
2023-11-20T06:55:44.309Z,7.37
2023-11-20T06:58:11.299Z,7.38
2023-11-20T07:00:40.686Z,7.35
2023-11-20T07:03:07.325Z,7.37
2023-11-20T07:05:36.173Z,7.45
2023-11-20T07:08:07.941Z,7.47
2023-11-20T07:10:34.394Z,7.58
2023-11-20T07:13:00.898Z,7.65
2023-11-20T07:15:27.364Z,7.65
2023-11-20T07:17:54.018Z,7.60
2023-11-20T07:20:21.499Z,7.62
2023-11-20T07:22:48.022Z,7.65
2023-11-20T07:25:14.634Z,7.65
2023-11-20T07:27:41.198Z,7.67
2023-11-20T07:30:08.270Z,7.70
2023-11-20T07:32:36.443Z,7.72
2023-11-20T07:35:06.668Z,7.74
2023-11-20T07:37:33.616Z,7.74
2023-11-20T07:40:08.764Z,7.82
2023-11-20T07:42:35.406Z,7.77
2023-11-20T07:45:02.016Z,7.74
2023-11-20T07:47:28.601Z,7.81
2023-11-20T07:49:55.645Z,7.84
2023-11-20T07:52:22.527Z,7.86
2023-11-20T07:54:49.065Z,7.77
2023-11-20T07:57:17.625Z,7.74
2023-11-20T07:59:44.054Z,7.78
2023-11-20T08:02:10.490Z,7.82
2023-11-20T08:04:37.162Z,7.88
2023-11-20T08:07:04.482Z,7.88
2023-11-20T08:09:31.034Z,7.87
2023-11-20T08:11:57.631Z,7.84
2023-11-20T08:14:24.424Z,7.80
2023-11-20T08:16:50.887Z,7.89
2023-11-20T08:19:17.956Z,7.86
2023-11-20T08:21:44.597Z,7.90
2023-11-20T08:24:12.912Z,7.90
2023-11-20T08:26:39.901Z,7.86
2023-11-20T08:29:07.994Z,7.88
2023-11-20T08:31:34.806Z,7.91
2023-11-20T08:34:01.433Z,7.85
2023-11-20T08:36:27.948Z,7.90
2023-11-20T08:38:54.434Z,7.91
2023-11-20T08:41:21.020Z,7.93
2023-11-20T08:43:47.561Z,7.99
2023-11-20T08:46:16.034Z,8.01
2023-11-20T08:48:43.336Z,8.05
2023-11-20T08:51:10.047Z,8.08
2023-11-20T08:53:36.901Z,8.03
2023-11-20T08:56:04.030Z,8.00
2023-11-20T08:58:30.551Z,8.09
2023-11-20T09:00:57.083Z,8.11
2023-11-20T09:03:23.683Z,8.11
2023-11-20T09:05:50.199Z,8.15
2023-11-20T09:08:16.666Z,8.12
2023-11-20T09:10:43.131Z,8.04
2023-11-20T09:13:11.199Z,8.06
2023-11-20T09:15:38.341Z,8.15
2023-11-20T09:18:05.740Z,8.29
2023-11-20T09:20:32.262Z,8.35
2023-11-20T09:22:58.805Z,8.33
2023-11-20T09:25:25.876Z,8.36
2023-11-20T09:27:52.407Z,8.41
2023-11-20T09:30:19.040Z,8.45
2023-11-20T09:32:48.180Z,8.45
2023-11-20T09:35:17.367Z,8.43
2023-11-20T09:37:44.047Z,8.37
2023-11-20T09:40:12.550Z,8.42
2023-11-20T09:42:41.077Z,8.46
2023-11-20T09:45:17.219Z,8.57
2023-11-20T09:47:47.113Z,8.62
2023-11-20T09:50:13.761Z,8.57
2023-11-20T09:52:42.773Z,8.58
2023-11-20T09:55:09.596Z,8.56
2023-11-20T09:57:36.160Z,8.56
2023-11-20T10:00:04.396Z,8.63
2023-11-20T10:02:32.256Z,8.74
2023-11-20T10:05:00.055Z,8.68
2023-11-20T10:07:32.504Z,8.70
2023-11-20T10:09:59.139Z,8.69
2023-11-20T10:12:28.002Z,8.73
2023-11-20T10:14:54.973Z,8.81
2023-11-20T10:17:23.200Z,8.79
2023-11-20T10:19:49.780Z,8.79
2023-11-20T10:22:20.899Z,8.88
2023-11-20T10:24:49.739Z,8.92
2023-11-20T10:27:18.400Z,8.97
2023-11-20T10:29:44.861Z,8.92
2023-11-20T10:32:13.099Z,8.97
2023-11-20T10:34:39.668Z,8.87
2023-11-20T10:37:10.064Z,8.77
2023-11-20T10:39:37.185Z,8.74
2023-11-20T10:42:04.996Z,8.79
2023-11-20T10:44:36.593Z,8.81
2023-11-20T10:47:06.181Z,8.90
2023-11-20T10:49:35.273Z,8.95
2023-11-20T10:52:07.262Z,8.97
2023-11-20T10:54:49.404Z,9.01
2023-11-20T10:57:19.481Z,9.01
2023-11-20T10:59:47.303Z,9.13
2023-11-20T11:02:19.979Z,9.11
2023-11-20T11:04:47.916Z,9.15
2023-11-20T11:07:17.658Z,9.12
2023-11-20T11:09:45.567Z,9.15
2023-11-20T11:12:13.305Z,9.19
2023-11-20T11:14:41.655Z,9.25
2023-11-20T11:17:14.700Z,9.31
2023-11-20T11:19:49.647Z,9.34
2023-11-20T11:22:37.163Z,9.34
2023-11-20T11:25:11.608Z,9.34
2023-11-20T11:27:43.728Z,9.30
2023-11-20T11:30:12.000Z,9.41
2023-11-20T11:33:25.997Z,9.48
2023-11-20T11:36:11.222Z,9.34
2023-11-20T11:38:53.419Z,9.38
2023-11-20T11:41:40.779Z,9.43
2023-11-20T11:44:16.165Z,9.38
2023-11-20T11:46:44.706Z,9.41
2023-11-20T11:49:18.928Z,9.43
2023-11-20T11:51:47.040Z,9.42
2023-11-20T11:54:18.147Z,9.45
2023-11-20T11:57:08.666Z,9.54
2023-11-20T11:59:43.501Z,9.56
2023-11-20T12:02:13.720Z,9.49
2023-11-20T12:04:58.663Z,9.50
2023-11-20T12:07:50.792Z,9.56
2023-11-20T12:10:43.218Z,9.59
2023-11-20T12:13:11.776Z,9.63
2023-11-20T12:15:40.958Z,9.67
2023-11-20T12:18:12.230Z,9.63
2023-11-20T12:20:45.359Z,9.67
2023-11-20T12:23:39.520Z,9.73
2023-11-20T12:26:11.397Z,9.82
2023-11-20T12:28:39.427Z,9.84
2023-11-20T12:31:07.691Z,9.94
2023-11-20T12:33:36.363Z,10.02
2023-11-20T12:36:03.245Z,10.02
2023-11-20T12:38:33.595Z,10.14
2023-11-20T12:41:04.551Z,10.24
2023-11-20T12:43:32.649Z,10.27
2023-11-20T12:46:00.553Z,10.30
2023-11-20T12:48:31.047Z,10.26
2023-11-20T12:50:57.926Z,10.31
2023-11-20T12:53:24.534Z,10.37
2023-11-20T12:55:54.407Z,10.41
2023-11-20T12:58:21.472Z,10.45
2023-11-20T13:00:48.862Z,10.45
2023-11-20T13:03:20.444Z,10.43
2023-11-20T13:05:51.845Z,10.49
2023-11-20T13:08:22.067Z,10.52
2023-11-20T13:10:55.701Z,10.57
2023-11-20T13:13:28.391Z,10.70
2023-11-20T13:16:00.022Z,10.76
2023-11-20T13:18:31.104Z,10.76
2023-11-20T13:20:58.014Z,10.81
2023-11-20T13:23:34.864Z,10.76
2023-11-20T13:26:09.665Z,10.76
2023-11-20T13:28:37.935Z,10.76
2023-11-20T13:31:10.009Z,10.84
2023-11-20T13:33:39.598Z,10.88
2023-11-20T13:36:06.693Z,10.87
2023-11-20T13:38:34.451Z,10.84
2023-11-20T13:41:01.929Z,11.04
2023-11-20T13:43:28.892Z,11.03
2023-11-20T13:46:00.638Z,10.91
2023-11-20T13:48:28.742Z,10.97
2023-11-20T13:50:56.320Z,11.00
2023-11-20T13:53:24.320Z,10.94
2023-11-20T13:55:52.887Z,10.97
2023-11-20T13:58:25.572Z,11.00
2023-11-20T14:00:58.804Z,10.99
2023-11-20T14:03:26.970Z,10.98
2023-11-20T14:05:54.937Z,11.01
2023-11-20T14:08:21.724Z,10.98
2023-11-20T14:10:49.481Z,10.98
2023-11-20T14:13:16.628Z,11.01
2023-11-20T14:15:43.432Z,11.01
2023-11-20T14:18:10.725Z,11.02
2023-11-20T14:20:37.413Z,11.02
2023-11-20T14:23:04.960Z,11.09
2023-11-20T14:25:34.117Z,11.16
2023-11-20T14:28:01.530Z,11.16
2023-11-20T14:30:28.193Z,11.14
2023-11-20T14:32:56.473Z,11.14
2023-11-20T14:35:23.089Z,11.18
2023-11-20T14:37:50.027Z,11.20
2023-11-20T14:40:18.508Z,11.21
2023-11-20T14:42:47.198Z,11.18
2023-11-20T14:45:15.945Z,11.18
2023-11-20T14:47:43.805Z,11.17
2023-11-20T14:50:12.528Z,11.16
2023-11-20T14:52:44.399Z,11.13
2023-11-20T14:55:11.835Z,11.09
2023-11-20T14:57:40.532Z,11.10
2023-11-20T15:00:08.480Z,11.15
2023-11-20T15:02:35.348Z,11.16
2023-11-20T15:05:01.982Z,11.15
2023-11-20T15:07:28.563Z,11.17
2023-11-20T15:09:55.088Z,11.10
2023-11-20T15:12:24.475Z,11.09
2023-11-20T15:14:52.378Z,11.07
2023-11-20T15:17:19.471Z,11.06
2023-11-20T15:19:45.960Z,11.03
2023-11-20T15:22:12.584Z,11.01
2023-11-20T15:24:39.157Z,11.01
2023-11-20T15:27:05.907Z,10.99
2023-11-20T15:29:32.853Z,11.03
2023-11-20T15:31:59.438Z,11.02
2023-11-20T15:34:26.064Z,10.97
2023-11-20T15:36:53.832Z,10.92
2023-11-20T15:39:21.139Z,10.90
2023-11-20T15:41:49.406Z,10.88
2023-11-20T15:44:17.817Z,10.88
2023-11-20T15:46:46.616Z,10.91
2023-11-20T15:49:15.417Z,10.89
2023-11-20T15:51:45.346Z,10.89
2023-11-20T15:54:17.697Z,10.87
2023-11-20T15:56:48.752Z,10.88
2023-11-20T15:59:17.439Z,10.82
2023-11-20T16:01:49.053Z,10.78
2023-11-20T16:04:16.037Z,10.75
2023-11-20T16:06:43.422Z,10.75
2023-11-20T16:09:09.903Z,10.72
2023-11-20T16:11:36.368Z,10.72
2023-11-20T16:14:03.244Z,10.73
2023-11-20T16:16:32.730Z,10.72
2023-11-20T16:18:59.295Z,10.69
2023-11-20T16:21:25.837Z,10.71
2023-11-20T16:23:52.321Z,10.68
2023-11-20T16:26:20.343Z,10.72
2023-11-20T16:28:47.601Z,10.72
2023-11-20T16:31:14.461Z,10.72
2023-11-20T16:33:41.497Z,10.75
2023-11-20T16:36:08.578Z,10.71
2023-11-20T16:38:35.046Z,10.63
2023-11-20T16:41:01.907Z,10.58
2023-11-20T16:43:29.724Z,10.58
2023-11-20T16:45:56.356Z,10.59
2023-11-20T16:48:23.614Z,10.56
2023-11-20T16:50:50.073Z,10.59
2023-11-20T16:53:16.769Z,10.60
2023-11-20T16:55:43.707Z,10.63
2023-11-20T16:58:10.320Z,10.62
2023-11-20T17:00:37.324Z,10.58
2023-11-20T17:03:04.286Z,10.58
2023-11-20T17:05:32.362Z,10.59
2023-11-20T17:07:58.950Z,10.59
2023-11-20T17:10:25.457Z,10.56
2023-11-20T17:12:51.947Z,10.53
2023-11-20T17:15:18.826Z,10.49
2023-11-20T17:17:45.360Z,10.53
2023-11-20T17:20:12.700Z,10.52
2023-11-20T17:22:39.489Z,10.48
2023-11-20T17:25:07.689Z,10.47
2023-11-20T17:27:34.274Z,10.44
2023-11-20T17:30:02.217Z,10.45
2023-11-20T17:32:29.043Z,10.43
2023-11-20T17:34:55.743Z,10.42
2023-11-20T17:37:22.370Z,10.37
2023-11-20T17:39:52.243Z,10.40
2023-11-20T17:42:18.696Z,10.40
2023-11-20T17:44:45.564Z,10.40
2023-11-20T17:47:12.249Z,10.55
2023-11-20T17:49:38.837Z,10.58
2023-11-20T17:52:05.492Z,10.45
2023-11-20T17:54:34.052Z,10.36
2023-11-20T17:57:00.630Z,10.36
2023-11-20T17:59:27.119Z,10.38
2023-11-20T18:01:53.786Z,10.38
2023-11-20T18:04:20.664Z,10.38
2023-11-20T18:06:51.149Z,10.36
2023-11-20T18:09:21.577Z,10.37
2023-11-20T18:11:50.899Z,10.32
2023-11-20T18:14:18.336Z,10.26
2023-11-20T18:16:45.394Z,10.26
2023-11-20T18:19:11.922Z,10.30
2023-11-20T18:21:46.032Z,10.26
2023-11-20T18:24:18.380Z,10.25
2023-11-20T18:26:46.024Z,10.23
2023-11-20T18:29:14.130Z,10.20
2023-11-20T18:31:40.685Z,10.17
2023-11-20T18:34:08.939Z,10.19
2023-11-20T18:36:35.512Z,10.18
2023-11-20T18:39:02.003Z,10.17
2023-11-20T18:41:31.198Z,10.16
2023-11-20T18:43:57.996Z,10.22
2023-11-20T18:46:24.578Z,10.23
2023-11-20T18:48:52.195Z,10.22
2023-11-20T18:51:18.650Z,10.16
2023-11-20T18:53:49.024Z,10.11
2023-11-20T18:56:15.508Z,10.10
2023-11-20T18:58:42.137Z,10.09
2023-11-20T19:01:08.714Z,10.10
2023-11-20T19:03:35.406Z,10.10
2023-11-20T19:06:01.916Z,10.09
2023-11-20T19:08:28.550Z,10.09
2023-11-20T19:10:56.169Z,10.11
2023-11-20T19:13:23.869Z,10.07
2023-11-20T19:15:50.571Z,10.00
2023-11-20T19:18:17.203Z,10.01
2023-11-20T19:20:43.764Z,9.98
2023-11-20T19:23:10.199Z,9.94
2023-11-20T19:25:36.828Z,9.97
2023-11-20T19:28:03.458Z,9.98
2023-11-20T19:30:29.946Z,10.00
2023-11-20T19:32:56.464Z,9.96
2023-11-20T19:35:24.031Z,9.95
2023-11-20T19:37:50.899Z,10.00
2023-11-20T19:40:19.024Z,10.00
2023-11-20T19:42:45.604Z,10.00
2023-11-20T19:45:12.196Z,10.06
2023-11-20T19:47:38.821Z,10.05
2023-11-20T19:50:07.230Z,10.04
2023-11-20T19:52:33.753Z,10.00
2023-11-20T19:55:00.255Z,10.00
2023-11-20T19:57:27.235Z,10.01
2023-11-20T19:59:53.697Z,10.01
2023-11-20T20:02:21.775Z,10.01
2023-11-20T20:04:52.650Z,9.99
2023-11-20T20:07:21.611Z,9.99
2023-11-20T20:09:48.116Z,10.04
2023-11-20T20:12:14.674Z,10.00
2023-11-20T20:14:42.466Z,9.88
2023-11-20T20:17:10.886Z,9.91
2023-11-20T20:19:44.777Z,9.92
2023-11-20T20:22:16.009Z,9.90
2023-11-20T20:24:43.197Z,9.94
2023-11-20T20:27:10.122Z,9.99
2023-11-20T20:29:37.502Z,9.99
2023-11-20T20:32:04.963Z,10.01
2023-11-20T20:34:32.128Z,10.01
2023-11-20T20:36:59.233Z,10.04
2023-11-20T20:39:26.111Z,10.05
2023-11-20T20:41:54.151Z,10.04
2023-11-20T20:44:21.005Z,9.96
2023-11-20T20:46:49.222Z,9.94
2023-11-20T20:49:16.827Z,9.95
2023-11-20T20:51:46.928Z,9.97
2023-11-20T20:54:13.997Z,9.94
2023-11-20T20:56:45.732Z,9.95
2023-11-20T20:59:14.168Z,9.98
2023-11-20T21:01:40.724Z,9.98
2023-11-20T21:04:07.295Z,10.00
2023-11-20T21:06:35.305Z,10.01
2023-11-20T21:09:01.849Z,10.02
2023-11-20T21:11:30.790Z,9.97
2023-11-20T21:13:57.363Z,9.92
2023-11-20T21:16:24.072Z,9.94
2023-11-20T21:18:50.684Z,9.98
2023-11-20T21:21:17.521Z,9.99
2023-11-20T21:23:44.243Z,10.02
2023-11-20T21:26:14.598Z,10.05
2023-11-20T21:28:41.605Z,10.04
2023-11-20T21:31:09.095Z,10.01
2023-11-20T21:33:35.880Z,9.99
2023-11-20T21:36:03.334Z,10.02
2023-11-20T21:38:30.553Z,10.03
2023-11-20T21:40:57.497Z,10.01
2023-11-20T21:43:24.410Z,10.01
2023-11-20T21:45:52.355Z,9.93
2023-11-20T21:48:19.311Z,9.93
2023-11-20T21:50:45.823Z,9.97
2023-11-20T21:53:13.138Z,9.95
2023-11-20T21:55:39.765Z,9.94
2023-11-20T21:58:06.326Z,9.94
2023-11-20T22:00:32.803Z,9.94
2023-11-20T22:02:59.327Z,9.92
2023-11-20T22:05:26.428Z,9.82
2023-11-20T22:07:53.110Z,9.81
2023-11-20T22:10:22.044Z,9.82
2023-11-20T22:12:49.299Z,9.80
2023-11-20T22:15:16.002Z,9.79
2023-11-20T22:17:42.615Z,9.72
2023-11-20T22:20:12.678Z,9.72
2023-11-20T22:22:39.600Z,9.73
2023-11-20T22:25:06.351Z,9.77
2023-11-20T22:27:33.168Z,9.81
2023-11-20T22:30:00.057Z,9.84
2023-11-20T22:32:26.759Z,9.77
2023-11-20T22:35:09.591Z,9.79
2023-11-20T22:37:39.783Z,9.74
2023-11-20T22:40:09.007Z,9.72
2023-11-20T22:42:35.752Z,9.72
2023-11-20T22:45:02.340Z,9.71
2023-11-20T22:47:28.933Z,9.71
2023-11-20T22:49:55.487Z,9.70
2023-11-20T22:52:22.022Z,9.67
2023-11-20T22:54:48.491Z,9.65
2023-11-20T22:57:14.962Z,9.68
2023-11-20T22:59:42.082Z,9.66
2023-11-20T23:02:08.690Z,9.67
2023-11-20T23:04:35.278Z,9.66
2023-11-20T23:07:01.768Z,9.72
2023-11-20T23:09:28.211Z,9.75
2023-11-20T23:11:54.750Z,9.69
2023-11-20T23:14:21.243Z,9.70
2023-11-20T23:16:47.766Z,9.69
2023-11-20T23:19:14.261Z,9.68
2023-11-20T23:21:41.120Z,9.70
2023-11-20T23:24:09.769Z,9.71
2023-11-20T23:26:36.345Z,9.71
2023-11-20T23:29:07.095Z,9.75
2023-11-20T23:31:38.200Z,9.78
2023-11-20T23:34:06.155Z,9.82
2023-11-20T23:36:33.169Z,9.88
2023-11-20T23:39:00.367Z,9.86
2023-11-20T23:41:27.488Z,9.87
2023-11-20T23:43:54.909Z,9.89
2023-11-20T23:46:21.966Z,9.90
2023-11-20T23:48:51.309Z,9.90
2023-11-20T23:51:18.043Z,9.81
2023-11-20T23:53:44.491Z,9.80
2023-11-20T23:56:10.979Z,9.77
2023-11-20T23:58:37.499Z,9.74
